This is the latest recevied weather packets stored in our database for station/object KQ4NAL. If no packets are shown the sender has not sent any weather packets the latest 10 day(s).
| Time | Temp. | Humidity | Pressure | Rain* | Wind** | Luminosity | Snow |
|---|---|---|---|---|---|---|---|
| 1777931916 | 25° C | 50% | 1008 hPa | 0 mm | - | 122 W/m² | - |
| 1777931612 | 24.44° C | 51% | 1007.9 hPa | 0 mm | - | 229 W/m² | - |
| 1777931308 | 24.44° C | 52% | 1008 hPa | 0 mm | - | 332 W/m² | - |
| 1777931005 | 24.44° C | 51% | 1007.9 hPa | 0 mm | - | 213 W/m² | - |
| 1777930702 | 25° C | 50% | 1007.9 hPa | 0 mm | - | 150 W/m² | - |
| 1777930398 | 25° C | 49% | 1008.1 hPa | 0 mm | - | 371 W/m² | - |
| 1777930095 | 24.44° C | 50% | 1008.1 hPa | 0 mm | - | 361 W/m² | - |
| 1777929791 | 24.44° C | 54% | 1008.1 hPa | 0 mm | - | 141 W/m² | - |
| 1777929489 | 25.56° C | 50% | 1008.5 hPa | 0 mm | - | 125 W/m² | - |
| 1777929185 | 25° C | 51% | 1008.4 hPa | 0 mm | - | 543 W/m² | - |
| 1777928883 | 24.44° C | 52% | 1008.4 hPa | 0 mm | - | 139 W/m² | - |
| 1777928580 | 25° C | 52% | 1008.2 hPa | 0 mm | - | 118 W/m² | - |
| 1777928277 | 25° C | 50% | 1008.6 hPa | 0 mm | - | 142 W/m² | - |
| 1777927974 | 25.56° C | 49% | 1008.5 hPa | 0 mm | - | 504 W/m² | - |
| 1777927673 | 25° C | 49% | 1008.5 hPa | 0 mm | - | 541 W/m² | - |
| 1777927370 | 25° C | 50% | 1008.8 hPa | 0 mm | - | 437 W/m² | - |
| 1777927070 | 25.56° C | 48% | 1008.8 hPa | 0 mm | - | 655 W/m² | - |
| 1777926766 | 25° C | 52% | 1008.8 hPa | 0 mm | - | 597 W/m² | - |
| 1777926461 | 25° C | 51% | 1008.9 hPa | 0 mm | - | 235 W/m² | - |
| 1777926159 | 23.89° C | 54% | 1009.1 hPa | 0 mm | - | 478 W/m² | - |
| 1777925856 | 23.89° C | 54% | 1009 hPa | 0 mm | - | 282 W/m² | - |
| 1777925553 | 23.33° C | 55% | 1009.1 hPa | 0 mm | - | 281 W/m² | - |
| 1777925250 | 23.33° C | 57% | 1009.5 hPa | 0 mm | - | 263 W/m² | - |
| 1777924946 | 23.33° C | 58% | 1009.3 hPa | 0 mm | - | 261 W/m² | - |
| 1777924643 | 23.33° C | 56% | 1009.1 hPa | 0 mm | - | 260 W/m² | - |
* Rain latest hour (hover to see other rain measurements)
** Current wind speed in m/s (hover to see current wind gust speed)